sensor_id;sensor_type;location;lat;lon;timestamp;pressure;altitude;pressure_sealevel;temperature;humidity
32131;BME280;18639;50.716;7.086;2023-04-19T00:01:57;101310.66;;;12.35;86.79
32131;BME280;18639;50.716;7.086;2023-04-19T00:04:22;101301.31;;;12.32;88.86
32131;BME280;18639;50.716;7.086;2023-04-19T00:06:47;101294.88;;;12.23;89.24
32131;BME280;18639;50.716;7.086;2023-04-19T00:09:12;101293.66;;;12.15;88.15
32131;BME280;18639;50.716;7.086;2023-04-19T00:11:38;101303.03;;;12.17;88.53
32131;BME280;18639;50.716;7.086;2023-04-19T00:14:03;101312.78;;;12.28;88.25
32131;BME280;18639;50.716;7.086;2023-04-19T00:16:29;101310.28;;;12.27;88.26
32131;BME280;18639;50.716;7.086;2023-04-19T00:18:54;101292.66;;;12.17;89.22
32131;BME280;18639;50.716;7.086;2023-04-19T00:21:20;101307.03;;;12.23;89.50
32131;BME280;18639;50.716;7.086;2023-04-19T00:23:45;101291.06;;;12.15;89.13
32131;BME280;18639;50.716;7.086;2023-04-19T00:26:10;101302.25;;;12.15;90.32
32131;BME280;18639;50.716;7.086;2023-04-19T00:28:39;101303.75;;;12.19;90.27
32131;BME280;18639;50.716;7.086;2023-04-19T00:31:04;101300.50;;;12.16;91.13
32131;BME280;18639;50.716;7.086;2023-04-19T00:33:30;101303.69;;;12.21;90.73
32131;BME280;18639;50.716;7.086;2023-04-19T00:35:55;101278.44;;;12.09;90.46
32131;BME280;18639;50.716;7.086;2023-04-19T00:38:20;101309.69;;;12.21;90.34
32131;BME280;18639;50.716;7.086;2023-04-19T00:40:45;101297.25;;;12.12;90.50
32131;BME280;18639;50.716;7.086;2023-04-19T00:43:16;101299.09;;;12.10;90.79
32131;BME280;18639;50.716;7.086;2023-04-19T00:45:41;101286.56;;;12.03;91.23
32131;BME280;18639;50.716;7.086;2023-04-19T00:48:07;101290.66;;;12.07;91.47
32131;BME280;18639;50.716;7.086;2023-04-19T00:50:32;101286.81;;;11.98;91.98
32131;BME280;18639;50.716;7.086;2023-04-19T00:52:59;101282.41;;;12.00;91.68
32131;BME280;18639;50.716;7.086;2023-04-19T00:55:24;101282.22;;;12.03;91.88
32131;BME280;18639;50.716;7.086;2023-04-19T00:57:50;101285.38;;;12.08;92.00
32131;BME280;18639;50.716;7.086;2023-04-19T01:00:16;101288.22;;;12.04;93.03
32131;BME280;18639;50.716;7.086;2023-04-19T01:02:41;101275.72;;;11.96;93.09
32131;BME280;18639;50.716;7.086;2023-04-19T01:05:07;101268.63;;;11.84;94.07
32131;BME280;18639;50.716;7.086;2023-04-19T01:07:33;101284.31;;;11.81;94.52
32131;BME280;18639;50.716;7.086;2023-04-19T01:09:59;101258.38;;;11.65;95.29
32131;BME280;18639;50.716;7.086;2023-04-19T01:12:24;101257.72;;;11.62;96.45
32131;BME280;18639;50.716;7.086;2023-04-19T01:14:49;101268.06;;;11.62;96.73
32131;BME280;18639;50.716;7.086;2023-04-19T01:17:15;101267.66;;;11.54;97.54
32131;BME280;18639;50.716;7.086;2023-04-19T01:19:40;101255.38;;;11.42;98.34
32131;BME280;18639;50.716;7.086;2023-04-19T01:22:06;101268.13;;;11.45;98.21
32131;BME280;18639;50.716;7.086;2023-04-19T01:24:32;101259.19;;;11.34;99.42
32131;BME280;18639;50.716;7.086;2023-04-19T01:26:57;101258.69;;;11.28;100.00
32131;BME280;18639;50.716;7.086;2023-04-19T01:29:23;101271.25;;;11.18;100.00
32131;BME280;18639;50.716;7.086;2023-04-19T01:31:48;101262.78;;;11.16;100.00
32131;BME280;18639;50.716;7.086;2023-04-19T01:34:20;101270.97;;;11.07;100.00
32131;BME280;18639;50.716;7.086;2023-04-19T01:36:47;101262.63;;;11.02;100.00
32131;BME280;18639;50.716;7.086;2023-04-19T01:39:12;101273.28;;;10.96;100.00
32131;BME280;18639;50.716;7.086;2023-04-19T01:41:38;101243.81;;;10.83;100.00
32131;BME280;18639;50.716;7.086;2023-04-19T01:44:03;101229.22;;;10.65;100.00
32131;BME280;18639;50.716;7.086;2023-04-19T01:46:28;101276.09;;;10.91;100.00
32131;BME280;18639;50.716;7.086;2023-04-19T01:48:54;101257.09;;;10.92;100.00
32131;BME280;18639;50.716;7.086;2023-04-19T01:51:19;101263.94;;;10.93;100.00
32131;BME280;18639;50.716;7.086;2023-04-19T01:53:46;101258.06;;;10.90;100.00
32131;BME280;18639;50.716;7.086;2023-04-19T01:56:11;101259.91;;;10.88;100.00
32131;BME280;18639;50.716;7.086;2023-04-19T01:58:36;101238.94;;;10.77;100.00
32131;BME280;18639;50.716;7.086;2023-04-19T02:01:02;101238.94;;;10.77;100.00
32131;BME280;18639;50.716;7.086;2023-04-19T02:03:27;101258.03;;;10.74;100.00
32131;BME280;18639;50.716;7.086;2023-04-19T02:05:52;101225.59;;;10.51;100.00
32131;BME280;18639;50.716;7.086;2023-04-19T02:08:17;101237.59;;;10.52;100.00
32131;BME280;18639;50.716;7.086;2023-04-19T02:10:43;101223.16;;;10.48;100.00
32131;BME280;18639;50.716;7.086;2023-04-19T02:13:08;101239.97;;;10.57;100.00
32131;BME280;18639;50.716;7.086;2023-04-19T02:15:35;101226.44;;;10.52;100.00
32131;BME280;18639;50.716;7.086;2023-04-19T02:18:01;101227.56;;;10.46;100.00
32131;BME280;18639;50.716;7.086;2023-04-19T02:20:26;101235.09;;;10.51;100.00
32131;BME280;18639;50.716;7.086;2023-04-19T02:22:51;101235.63;;;10.40;100.00
32131;BME280;18639;50.716;7.086;2023-04-19T02:25:17;101234.31;;;10.32;100.00
32131;BME280;18639;50.716;7.086;2023-04-19T02:27:43;101232.75;;;10.29;100.00
32131;BME280;18639;50.716;7.086;2023-04-19T02:30:09;101228.09;;;10.19;100.00
32131;BME280;18639;50.716;7.086;2023-04-19T02:32:34;101237.69;;;10.15;100.00
32131;BME280;18639;50.716;7.086;2023-04-19T02:34:59;101241.34;;;10.11;100.00
32131;BME280;18639;50.716;7.086;2023-04-19T02:37:25;101233.13;;;10.03;100.00
32131;BME280;18639;50.716;7.086;2023-04-19T02:39:50;101229.31;;;9.93;100.00
32131;BME280;18639;50.716;7.086;2023-04-19T02:42:15;101224.56;;;9.84;100.00
32131;BME280;18639;50.716;7.086;2023-04-19T02:44:41;101218.03;;;9.77;100.00
32131;BME280;18639;50.716;7.086;2023-04-19T02:47:06;101232.31;;;9.84;100.00
32131;BME280;18639;50.716;7.086;2023-04-19T02:49:32;101217.44;;;9.71;100.00
32131;BME280;18639;50.716;7.086;2023-04-19T02:52:00;101227.75;;;9.71;100.00
32131;BME280;18639;50.716;7.086;2023-04-19T02:54:25;101225.50;;;9.64;100.00
32131;BME280;18639;50.716;7.086;2023-04-19T02:56:50;101224.84;;;9.60;100.00
32131;BME280;18639;50.716;7.086;2023-04-19T02:59:16;101218.28;;;9.53;100.00
32131;BME280;18639;50.716;7.086;2023-04-19T03:01:41;101225.84;;;9.56;100.00
32131;BME280;18639;50.716;7.086;2023-04-19T03:04:06;101217.59;;;9.50;100.00
32131;BME280;18639;50.716;7.086;2023-04-19T03:06:31;101215.13;;;9.47;100.00
32131;BME280;18639;50.716;7.086;2023-04-19T03:08:57;101217.16;;;9.40;100.00
32131;BME280;18639;50.716;7.086;2023-04-19T03:11:22;101214.72;;;9.37;100.00
32131;BME280;18639;50.716;7.086;2023-04-19T03:13:47;101224.13;;;9.38;100.00
32131;BME280;18639;50.716;7.086;2023-04-19T03:16:12;101222.03;;;9.27;100.00
32131;BME280;18639;50.716;7.086;2023-04-19T03:18:38;101227.19;;;9.27;100.00
32131;BME280;18639;50.716;7.086;2023-04-19T03:21:03;101212.28;;;9.15;100.00
32131;BME280;18639;50.716;7.086;2023-04-19T03:23:28;101206.44;;;9.12;100.00
32131;BME280;18639;50.716;7.086;2023-04-19T03:25:54;101193.81;;;9.06;100.00
32131;BME280;18639;50.716;7.086;2023-04-19T03:28:20;101215.69;;;9.16;100.00
32131;BME280;18639;50.716;7.086;2023-04-19T03:30:45;101222.53;;;9.17;100.00
32131;BME280;18639;50.716;7.086;2023-04-19T03:33:10;101208.63;;;9.19;100.00
32131;BME280;18639;50.716;7.086;2023-04-19T03:35:36;101209.47;;;9.20;100.00
32131;BME280;18639;50.716;7.086;2023-04-19T03:38:01;101200.22;;;9.16;100.00
32131;BME280;18639;50.716;7.086;2023-04-19T03:40:29;101199.31;;;9.17;100.00
32131;BME280;18639;50.716;7.086;2023-04-19T03:42:55;101194.78;;;9.22;100.00
32131;BME280;18639;50.716;7.086;2023-04-19T03:45:20;101182.31;;;9.13;100.00
32131;BME280;18639;50.716;7.086;2023-04-19T03:47:46;101191.16;;;9.26;100.00
32131;BME280;18639;50.716;7.086;2023-04-19T03:50:11;101191.22;;;9.24;100.00
32131;BME280;18639;50.716;7.086;2023-04-19T03:52:37;101179.53;;;9.17;100.00
32131;BME280;18639;50.716;7.086;2023-04-19T03:55:02;101197.09;;;9.28;100.00
32131;BME280;18639;50.716;7.086;2023-04-19T03:57:27;101185.94;;;9.27;100.00
32131;BME280;18639;50.716;7.086;2023-04-19T03:59:53;101198.78;;;9.29;100.00
32131;BME280;18639;50.716;7.086;2023-04-19T04:02:18;101209.91;;;9.29;100.00
32131;BME280;18639;50.716;7.086;2023-04-19T04:04:43;101198.00;;;9.27;100.00
32131;BME280;18639;50.716;7.086;2023-04-19T04:07:08;101204.88;;;9.26;100.00
32131;BME280;18639;50.716;7.086;2023-04-19T04:09:34;101184.69;;;9.17;100.00
32131;BME280;18639;50.716;7.086;2023-04-19T04:11:59;101195.41;;;9.27;100.00
32131;BME280;18639;50.716;7.086;2023-04-19T04:14:24;101204.88;;;9.26;100.00
32131;BME280;18639;50.716;7.086;2023-04-19T04:16:49;101199.88;;;9.23;100.00
32131;BME280;18639;50.716;7.086;2023-04-19T04:19:16;101206.69;;;9.24;100.00
32131;BME280;18639;50.716;7.086;2023-04-19T04:21:42;101205.88;;;9.24;100.00
32131;BME280;18639;50.716;7.086;2023-04-19T04:24:07;101186.41;;;9.17;100.00
32131;BME280;18639;50.716;7.086;2023-04-19T04:26:32;101173.81;;;9.11;100.00
32131;BME280;18639;50.716;7.086;2023-04-19T04:28:59;101209.72;;;9.34;100.00
32131;BME280;18639;50.716;7.086;2023-04-19T04:31:27;101196.09;;;9.30;100.00
32131;BME280;18639;50.716;7.086;2023-04-19T04:33:53;101209.28;;;9.43;100.00
32131;BME280;18639;50.716;7.086;2023-04-19T04:36:19;101189.81;;;9.36;100.00
32131;BME280;18639;50.716;7.086;2023-04-19T04:38:45;101223.44;;;9.53;100.00
32131;BME280;18639;50.716;7.086;2023-04-19T04:41:10;101225.22;;;9.51;100.00
32131;BME280;18639;50.716;7.086;2023-04-19T04:43:36;101208.09;;;9.50;100.00
32131;BME280;18639;50.716;7.086;2023-04-19T04:46:02;101218.06;;;9.58;100.00
32131;BME280;18639;50.716;7.086;2023-04-19T04:48:28;101212.16;;;9.56;100.00
32131;BME280;18639;50.716;7.086;2023-04-19T04:50:53;101207.72;;;9.58;100.00
32131;BME280;18639;50.716;7.086;2023-04-19T04:53:18;101199.44;;;9.51;100.00
32131;BME280;18639;50.716;7.086;2023-04-19T04:55:44;101199.88;;;9.61;100.00
32131;BME280;18639;50.716;7.086;2023-04-19T04:58:09;101209.13;;;9.65;100.00
32131;BME280;18639;50.716;7.086;2023-04-19T05:00:35;101215.34;;;9.61;100.00
32131;BME280;18639;50.716;7.086;2023-04-19T05:03:00;101220.41;;;9.62;100.00
32131;BME280;18639;50.716;7.086;2023-04-19T05:05:26;101222.88;;;9.65;100.00
32131;BME280;18639;50.716;7.086;2023-04-19T05:07:52;101214.34;;;9.63;100.00
32131;BME280;18639;50.716;7.086;2023-04-19T05:10:17;101208.44;;;9.61;100.00
32131;BME280;18639;50.716;7.086;2023-04-19T05:12:42;101207.38;;;9.65;100.00
32131;BME280;18639;50.716;7.086;2023-04-19T05:15:08;101211.56;;;9.68;100.00
32131;BME280;18639;50.716;7.086;2023-04-19T05:17:33;101205.38;;;9.72;100.00
32131;BME280;18639;50.716;7.086;2023-04-19T05:19:58;101210.16;;;9.80;100.00
32131;BME280;18639;50.716;7.086;2023-04-19T05:22:24;101199.75;;;9.81;100.00
32131;BME280;18639;50.716;7.086;2023-04-19T05:24:50;101196.34;;;9.81;100.00
32131;BME280;18639;50.716;7.086;2023-04-19T05:27:15;101193.75;;;9.81;100.00
32131;BME280;18639;50.716;7.086;2023-04-19T05:29:41;101201.81;;;9.92;100.00
32131;BME280;18639;50.716;7.086;2023-04-19T05:32:06;101188.22;;;9.88;100.00
32131;BME280;18639;50.716;7.086;2023-04-19T05:34:32;101186.34;;;9.92;100.00
32131;BME280;18639;50.716;7.086;2023-04-19T05:36:57;101201.59;;;9.96;100.00
32131;BME280;18639;50.716;7.086;2023-04-19T05:39:23;101211.47;;;10.05;100.00
32131;BME280;18639;50.716;7.086;2023-04-19T05:41:48;101209.72;;;10.06;100.00
32131;BME280;18639;50.716;7.086;2023-04-19T05:44:13;101217.47;;;10.06;100.00
32131;BME280;18639;50.716;7.086;2023-04-19T05:46:38;101198.50;;;10.07;100.00
32131;BME280;18639;50.716;7.086;2023-04-19T05:49:04;101197.66;;;10.06;100.00
32131;BME280;18639;50.716;7.086;2023-04-19T05:51:29;101199.28;;;10.09;100.00
32131;BME280;18639;50.716;7.086;2023-04-19T05:53:55;101203.25;;;10.16;100.00
32131;BME280;18639;50.716;7.086;2023-04-19T05:56:21;101200.34;;;10.22;100.00
32131;BME280;18639;50.716;7.086;2023-04-19T05:58:46;101197.66;;;10.25;100.00
32131;BME280;18639;50.716;7.086;2023-04-19T06:01:11;101193.09;;;10.30;100.00
32131;BME280;18639;50.716;7.086;2023-04-19T06:03:37;101175.31;;;10.24;100.00
32131;BME280;18639;50.716;7.086;2023-04-19T06:06:03;101188.97;;;10.43;100.00
32131;BME280;18639;50.716;7.086;2023-04-19T06:08:28;101199.44;;;10.58;100.00
32131;BME280;18639;50.716;7.086;2023-04-19T06:10:54;101203.31;;;10.66;100.00
32131;BME280;18639;50.716;7.086;2023-04-19T06:13:20;101196.97;;;10.72;100.00
32131;BME280;18639;50.716;7.086;2023-04-19T06:15:46;101185.56;;;10.76;100.00
32131;BME280;18639;50.716;7.086;2023-04-19T06:18:11;101195.41;;;10.85;100.00
32131;BME280;18639;50.716;7.086;2023-04-19T06:20:37;101202.56;;;10.97;100.00
32131;BME280;18639;50.716;7.086;2023-04-19T06:23:03;101189.03;;;10.92;100.00
32131;BME280;18639;50.716;7.086;2023-04-19T06:25:28;101192.06;;;11.00;100.00
32131;BME280;18639;50.716;7.086;2023-04-19T06:27:54;101208.16;;;11.05;100.00
32131;BME280;18639;50.716;7.086;2023-04-19T06:30:19;101205.22;;;11.11;100.00
32131;BME280;18639;50.716;7.086;2023-04-19T06:32:45;101207.00;;;11.11;100.00
32131;BME280;18639;50.716;7.086;2023-04-19T06:35:10;101202.56;;;11.13;100.00
32131;BME280;18639;50.716;7.086;2023-04-19T06:37:35;101207.88;;;11.27;100.00
32131;BME280;18639;50.716;7.086;2023-04-19T06:40:01;101189.38;;;11.17;100.00
32131;BME280;18639;50.716;7.086;2023-04-19T06:42:26;101203.94;;;11.35;100.00
32131;BME280;18639;50.716;7.086;2023-04-19T06:44:53;101181.75;;;11.31;100.00
32131;BME280;18639;50.716;7.086;2023-04-19T06:47:18;101204.28;;;11.45;100.00
32131;BME280;18639;50.716;7.086;2023-04-19T06:49:43;101183.06;;;11.38;100.00
32131;BME280;18639;50.716;7.086;2023-04-19T06:52:09;101192.75;;;11.51;100.00
32131;BME280;18639;50.716;7.086;2023-04-19T06:54:35;101182.41;;;11.51;100.00
32131;BME280;18639;50.716;7.086;2023-04-19T06:57:00;101188.75;;;11.61;100.00
32131;BME280;18639;50.716;7.086;2023-04-19T06:59:26;101197.09;;;11.66;100.00
32131;BME280;18639;50.716;7.086;2023-04-19T07:01:52;101201.34;;;11.67;100.00
32131;BME280;18639;50.716;7.086;2023-04-19T07:04:17;101197.66;;;11.71;100.00
32131;BME280;18639;50.716;7.086;2023-04-19T07:06:47;101180.38;;;11.71;100.00
32131;BME280;18639;50.716;7.086;2023-04-19T07:09:14;101169.38;;;11.68;100.00
32131;BME280;18639;50.716;7.086;2023-04-19T07:11:39;101188.41;;;11.82;100.00
32131;BME280;18639;50.716;7.086;2023-04-19T07:14:04;101184.84;;;11.85;100.00
32131;BME280;18639;50.716;7.086;2023-04-19T07:16:30;101184.03;;;11.99;100.00
32131;BME280;18639;50.716;7.086;2023-04-19T07:18:55;101178.59;;;12.03;100.00
32131;BME280;18639;50.716;7.086;2023-04-19T07:21:21;101186.22;;;12.20;100.00
32131;BME280;18639;50.716;7.086;2023-04-19T07:23:48;101166.97;;;12.10;100.00
32131;BME280;18639;50.716;7.086;2023-04-19T07:26:14;101187.44;;;12.29;100.00
32131;BME280;18639;50.716;7.086;2023-04-19T07:28:39;101179.25;;;12.37;100.00
32131;BME280;18639;50.716;7.086;2023-04-19T07:31:04;101171.81;;;12.45;100.00
32131;BME280;18639;50.716;7.086;2023-04-19T07:33:30;101172.31;;;12.51;100.00
32131;BME280;18639;50.716;7.086;2023-04-19T07:35:56;101173.63;;;12.58;100.00
32131;BME280;18639;50.716;7.086;2023-04-19T07:38:21;101166.88;;;12.70;100.00
32131;BME280;18639;50.716;7.086;2023-04-19T07:40:46;101148.16;;;12.79;100.00
32131;BME280;18639;50.716;7.086;2023-04-19T07:43:12;101158.25;;;12.84;95.41
32131;BME280;18639;50.716;7.086;2023-04-19T07:45:37;101159.56;;;13.19;95.72
32131;BME280;18639;50.716;7.086;2023-04-19T07:48:03;101163.66;;;13.50;95.69
32131;BME280;18639;50.716;7.086;2023-04-19T07:50:28;101161.69;;;13.54;91.32
32131;BME280;18639;50.716;7.086;2023-04-19T07:52:53;101144.97;;;13.58;89.92
32131;BME280;18639;50.716;7.086;2023-04-19T07:55:19;101145.34;;;13.78;89.81
32131;BME280;18639;50.716;7.086;2023-04-19T07:57:44;101154.16;;;14.03;88.90
32131;BME280;18639;50.716;7.086;2023-04-19T08:00:13;101150.22;;;14.10;86.66
32131;BME280;18639;50.716;7.086;2023-04-19T08:02:42;101144.69;;;14.02;86.01
32131;BME280;18639;50.716;7.086;2023-04-19T08:05:08;101143.66;;;14.04;85.29
32131;BME280;18639;50.716;7.086;2023-04-19T08:07:33;101150.88;;;14.26;84.25
32131;BME280;18639;50.716;7.086;2023-04-19T08:09:58;101143.91;;;14.39;82.51
32131;BME280;18639;50.716;7.086;2023-04-19T08:12:24;101144.97;;;14.49;82.78
32131;BME280;18639;50.716;7.086;2023-04-19T08:14:49;101150.88;;;14.39;83.21
32131;BME280;18639;50.716;7.086;2023-04-19T08:17:15;101150.16;;;14.49;84.59
32131;BME280;18639;50.716;7.086;2023-04-19T08:19:44;101150.06;;;14.51;86.56
32131;BME280;18639;50.716;7.086;2023-04-19T08:22:09;101149.75;;;14.55;84.90
32131;BME280;18639;50.716;7.086;2023-04-19T08:24:35;101137.25;;;14.60;83.77
32131;BME280;18639;50.716;7.086;2023-04-19T08:27:00;101149.00;;;14.79;85.02
32131;BME280;18639;50.716;7.086;2023-04-19T08:29:25;101130.78;;;14.79;83.93
32131;BME280;18639;50.716;7.086;2023-04-19T08:31:51;101135.13;;;14.91;83.43
32131;BME280;18639;50.716;7.086;2023-04-19T08:34:16;101129.25;;;15.12;81.79
32131;BME280;18639;50.716;7.086;2023-04-19T08:36:42;101133.56;;;15.37;79.58
32131;BME280;18639;50.716;7.086;2023-04-19T08:39:07;101130.56;;;15.31;77.58
32131;BME280;18639;50.716;7.086;2023-04-19T08:41:33;101123.41;;;15.22;75.80
32131;BME280;18639;50.716;7.086;2023-04-19T08:44:00;101127.53;;;15.24;75.57
32131;BME280;18639;50.716;7.086;2023-04-19T08:46:26;101121.81;;;15.32;76.11
32131;BME280;18639;50.716;7.086;2023-04-19T08:48:53;101125.16;;;15.57;75.13
32131;BME280;18639;50.716;7.086;2023-04-19T08:51:18;101101.94;;;15.89;75.70
32131;BME280;18639;50.716;7.086;2023-04-19T08:53:44;101103.81;;;16.45;70.35
32131;BME280;18639;50.716;7.086;2023-04-19T08:56:11;101111.41;;;17.03;68.82
32131;BME280;18639;50.716;7.086;2023-04-19T08:58:37;101109.63;;;17.47;66.23
32131;BME280;18639;50.716;7.086;2023-04-19T09:01:06;101105.97;;;17.70;60.99
32131;BME280;18639;50.716;7.086;2023-04-19T09:03:32;101107.28;;;17.96;59.59
32131;BME280;18639;50.716;7.086;2023-04-19T09:05:59;101096.94;;;18.46;57.05
32131;BME280;18639;50.716;7.086;2023-04-19T09:08:29;101099.97;;;19.12;53.48
32131;BME280;18639;50.716;7.086;2023-04-19T09:13:22;101094.13;;;18.99;51.37
32131;BME280;18639;50.716;7.086;2023-04-19T09:15:47;101097.75;;;19.36;50.71
32131;BME280;18639;50.716;7.086;2023-04-19T09:18:13;101084.81;;;19.92;49.13
32131;BME280;18639;50.716;7.086;2023-04-19T09:20:40;101070.34;;;20.35;47.50
32131;BME280;18639;50.716;7.086;2023-04-19T09:23:08;101086.91;;;20.45;47.43
32131;BME280;18639;50.716;7.086;2023-04-19T09:25:34;101076.03;;;20.85;48.95
32131;BME280;18639;50.716;7.086;2023-04-19T09:28:13;101084.97;;;21.37;47.13
32131;BME280;18639;50.716;7.086;2023-04-19T09:30:39;101081.75;;;21.43;45.90
32131;BME280;18639;50.716;7.086;2023-04-19T09:33:05;101082.56;;;21.61;44.51
32131;BME280;18639;50.716;7.086;2023-04-19T09:35:42;101074.16;;;20.50;46.16
32131;BME280;18639;50.716;7.086;2023-04-19T09:38:08;101077.13;;;20.65;47.39
32131;BME280;18639;50.716;7.086;2023-04-19T09:40:33;101044.53;;;19.64;47.08
32131;BME280;18639;50.716;7.086;2023-04-19T09:42:59;101064.94;;;19.51;48.94
32131;BME280;18639;50.716;7.086;2023-04-19T09:45:26;101075.13;;;19.93;49.36
32131;BME280;18639;50.716;7.086;2023-04-19T09:48:02;101058.19;;;20.24;45.54
32131;BME280;18639;50.716;7.086;2023-04-19T09:50:28;101051.81;;;20.91;45.65
32131;BME280;18639;50.716;7.086;2023-04-19T09:52:54;101067.28;;;20.94;40.15
32131;BME280;18639;50.716;7.086;2023-04-19T09:55:19;101054.25;;;21.55;40.78
32131;BME280;18639;50.716;7.086;2023-04-19T09:57:45;101049.59;;;22.18;39.14
32131;BME280;18639;50.716;7.086;2023-04-19T10:00:11;101051.72;;;22.49;37.98
32131;BME280;18639;50.716;7.086;2023-04-19T10:02:39;101031.22;;;22.27;37.35
32131;BME280;18639;50.716;7.086;2023-04-19T10:05:07;101047.19;;;22.33;35.70
32131;BME280;18639;50.716;7.086;2023-04-19T10:07:34;101053.25;;;21.56;35.66
32131;BME280;18639;50.716;7.086;2023-04-19T10:10:01;101027.31;;;22.05;37.04
32131;BME280;18639;50.716;7.086;2023-04-19T10:12:27;101024.91;;;22.53;36.89
32131;BME280;18639;50.716;7.086;2023-04-19T10:14:55;101029.97;;;22.55;35.42
32131;BME280;18639;50.716;7.086;2023-04-19T10:17:23;101037.59;;;22.66;34.58
32131;BME280;18639;50.716;7.086;2023-04-19T10:20:03;101020.06;;;22.07;34.57
32131;BME280;18639;50.716;7.086;2023-04-19T10:22:31;101030.84;;;22.21;35.93
32131;BME280;18639;50.716;7.086;2023-04-19T10:25:15;101036.41;;;21.67;35.44
32131;BME280;18639;50.716;7.086;2023-04-19T10:27:42;101029.75;;;21.37;35.91
32131;BME280;18639;50.716;7.086;2023-04-19T10:30:17;101025.25;;;21.29;36.02
32131;BME280;18639;50.716;7.086;2023-04-19T10:32:50;101016.91;;;21.34;36.58
32131;BME280;18639;50.716;7.086;2023-04-19T10:35:18;101039.84;;;21.41;37.00
32131;BME280;18639;50.716;7.086;2023-04-19T10:43:25;101030.81;;;20.64;39.14
32131;BME280;18639;50.716;7.086;2023-04-19T10:45:51;100995.78;;;20.18;38.93
32131;BME280;18639;50.716;7.086;2023-04-19T10:51:16;101000.66;;;19.28;40.93
32131;BME280;18639;50.716;7.086;2023-04-19T11:01:41;101003.22;;;18.70;42.20
32131;BME280;18639;50.716;7.086;2023-04-19T11:07:23;100970.75;;;17.72;45.19
32131;BME280;18639;50.716;7.086;2023-04-19T11:11:52;100981.69;;;17.45;44.70
32131;BME280;18639;50.716;7.086;2023-04-19T11:14:19;100961.47;;;17.47;47.34
32131;BME280;18639;50.716;7.086;2023-04-19T11:16:45;100988.09;;;17.73;45.19
32131;BME280;18639;50.716;7.086;2023-04-19T11:19:17;100981.03;;;17.53;46.46
32131;BME280;18639;50.716;7.086;2023-04-19T11:21:47;100965.50;;;17.31;46.91
32131;BME280;18639;50.716;7.086;2023-04-19T11:24:13;100970.78;;;17.40;48.18
32131;BME280;18639;50.716;7.086;2023-04-19T11:26:41;100964.28;;;17.35;46.15
32131;BME280;18639;50.716;7.086;2023-04-19T11:29:08;100965.19;;;16.92;46.48
32131;BME280;18639;50.716;7.086;2023-04-19T11:31:34;100955.59;;;16.93;48.43
32131;BME280;18639;50.716;7.086;2023-04-19T11:33:59;100969.56;;;17.23;47.35
32131;BME280;18639;50.716;7.086;2023-04-19T11:36:26;100964.09;;;17.26;46.52
32131;BME280;18639;50.716;7.086;2023-04-19T11:38:52;100955.06;;;16.67;44.88
32131;BME280;18639;50.716;7.086;2023-04-19T11:41:17;100946.38;;;17.09;46.17
32131;BME280;18639;50.716;7.086;2023-04-19T11:43:43;100952.94;;;17.24;43.15
32131;BME280;18639;50.716;7.086;2023-04-19T11:46:12;100931.28;;;17.13;44.42
32131;BME280;18639;50.716;7.086;2023-04-19T11:48:50;100939.44;;;16.99;40.88
32131;BME280;18639;50.716;7.086;2023-04-19T11:51:16;100940.41;;;17.18;42.21
32131;BME280;18639;50.716;7.086;2023-04-19T11:53:41;100928.97;;;16.99;44.13
32131;BME280;18639;50.716;7.086;2023-04-19T11:56:10;100938.00;;;16.95;43.61
32131;BME280;18639;50.716;7.086;2023-04-19T11:58:38;100934.22;;;17.19;46.53
32131;BME280;18639;50.716;7.086;2023-04-19T12:01:10;100942.94;;;17.30;45.48
32131;BME280;18639;50.716;7.086;2023-04-19T12:03:45;100934.66;;;17.24;43.54
32131;BME280;18639;50.716;7.086;2023-04-19T12:06:13;100930.28;;;17.25;45.63
32131;BME280;18639;50.716;7.086;2023-04-19T12:08:46;100932.06;;;17.24;43.45
32131;BME280;18639;50.716;7.086;2023-04-19T12:11:12;100921.72;;;16.70;43.26
32131;BME280;18639;50.716;7.086;2023-04-19T12:13:37;100919.50;;;16.55;43.46
32131;BME280;18639;50.716;7.086;2023-04-19T12:16:05;100924.53;;;16.78;43.11
32131;BME280;18639;50.716;7.086;2023-04-19T12:18:45;100931.91;;;16.73;41.84
32131;BME280;18639;50.716;7.086;2023-04-19T12:21:23;100928.84;;;16.57;41.51
32131;BME280;18639;50.716;7.086;2023-04-19T12:23:52;100916.00;;;16.22;40.73
32131;BME280;18639;50.716;7.086;2023-04-19T12:26:17;100934.47;;;16.41;41.82
32131;BME280;18639;50.716;7.086;2023-04-19T12:28:43;100907.81;;;16.16;39.34
32131;BME280;18639;50.716;7.086;2023-04-19T12:31:08;100924.75;;;16.32;41.25
32131;BME280;18639;50.716;7.086;2023-04-19T12:33:33;100904.13;;;16.29;41.01
32131;BME280;18639;50.716;7.086;2023-04-19T12:35:58;100899.16;;;16.26;39.04
32131;BME280;18639;50.716;7.086;2023-04-19T12:38:24;100910.50;;;16.36;39.74
32131;BME280;18639;50.716;7.086;2023-04-19T12:40:51;100914.34;;;16.21;38.73
32131;BME280;18639;50.716;7.086;2023-04-19T12:43:17;100899.66;;;15.87;38.06
32131;BME280;18639;50.716;7.086;2023-04-19T12:45:42;100880.94;;;15.93;38.66
32131;BME280;18639;50.716;7.086;2023-04-19T12:48:07;100886.03;;;16.06;38.12
32131;BME280;18639;50.716;7.086;2023-04-19T12:50:33;100919.19;;;16.37;37.24
32131;BME280;18639;50.716;7.086;2023-04-19T12:52:58;100889.47;;;16.17;36.98
32131;BME280;18639;50.716;7.086;2023-04-19T12:55:23;100900.84;;;16.16;38.62
32131;BME280;18639;50.716;7.086;2023-04-19T12:57:48;100898.22;;;16.16;38.51
32131;BME280;18639;50.716;7.086;2023-04-19T13:00:14;100888.16;;;16.12;39.33
32131;BME280;18639;50.716;7.086;2023-04-19T13:02:39;100898.69;;;16.21;39.73
32131;BME280;18639;50.716;7.086;2023-04-19T13:05:05;100892.44;;;16.13;38.89
32131;BME280;18639;50.716;7.086;2023-04-19T13:07:31;100890.38;;;16.27;36.20